createdAt,value
2023-04-08T00:01:43.944Z,91.90
2023-04-08T00:04:11.009Z,91.75
2023-04-08T00:06:37.804Z,91.82
2023-04-08T00:09:04.621Z,91.72
2023-04-08T00:11:31.331Z,91.67
2023-04-08T00:13:58.029Z,91.49
2023-04-08T00:16:26.157Z,91.33
2023-04-08T00:18:52.944Z,91.78
2023-04-08T00:21:19.660Z,91.80
2023-04-08T00:23:46.530Z,91.43
2023-04-08T00:26:13.212Z,91.24
2023-04-08T00:28:39.923Z,91.84
2023-04-08T00:31:06.759Z,91.44
2023-04-08T00:33:34.966Z,91.77
2023-04-08T00:36:01.728Z,91.91
2023-04-08T00:38:28.479Z,91.81
2023-04-08T00:40:55.285Z,91.69
2023-04-08T00:43:22.719Z,91.64
2023-04-08T00:45:49.464Z,91.62
2023-04-08T00:48:16.203Z,91.55
2023-04-08T00:50:44.531Z,91.65
2023-04-08T00:53:11.291Z,91.77
2023-04-08T00:55:37.979Z,92.60
2023-04-08T00:58:04.687Z,92.16
2023-04-08T01:00:31.571Z,92.91
2023-04-08T01:03:01.547Z,93.11
2023-04-08T01:05:31.021Z,92.87
2023-04-08T01:07:59.047Z,93.04
2023-04-08T01:10:26.822Z,92.90
2023-04-08T01:12:55.120Z,93.18
2023-04-08T01:15:21.864Z,93.33
2023-04-08T01:17:48.716Z,93.11
2023-04-08T01:20:15.585Z,93.10
2023-04-08T01:22:47.728Z,93.46
2023-04-08T01:25:17.923Z,93.35
2023-04-08T01:27:46.046Z,93.68
2023-04-08T01:30:13.164Z,93.61
2023-04-08T01:32:39.912Z,93.52
2023-04-08T01:35:07.657Z,93.64
2023-04-08T01:37:34.468Z,94.05
2023-04-08T01:40:01.171Z,93.94
2023-04-08T01:42:28.593Z,93.75
2023-04-08T01:44:57.974Z,93.89
2023-04-08T01:47:25.036Z,93.95
2023-04-08T01:49:52.176Z,93.72
2023-04-08T01:52:18.967Z,93.73
2023-04-08T01:54:45.738Z,93.86
2023-04-08T01:57:12.568Z,94.05
2023-04-08T01:59:39.273Z,94.27
2023-04-08T02:02:08.235Z,94.05
2023-04-08T02:04:35.080Z,93.90
2023-04-08T02:07:02.245Z,93.81
2023-04-08T02:09:28.925Z,93.90
2023-04-08T02:11:55.619Z,94.16
2023-04-08T02:14:22.326Z,94.20
2023-04-08T02:16:50.584Z,94.18
2023-04-08T02:19:22.896Z,93.96
2023-04-08T02:22:08.246Z,93.94
2023-04-08T02:24:34.934Z,94.12
2023-04-08T02:27:01.647Z,93.78
2023-04-08T02:29:28.453Z,93.92
2023-04-08T02:31:55.247Z,94.05
2023-04-08T02:34:23.468Z,93.75
2023-04-08T02:36:50.436Z,93.97
2023-04-08T02:39:17.143Z,93.93
2023-04-08T02:41:43.827Z,93.96
2023-04-08T02:44:10.592Z,93.79
2023-04-08T02:46:37.294Z,94.01
2023-04-08T02:49:04.017Z,93.74
2023-04-08T02:51:32.094Z,93.84
2023-04-08T02:53:58.819Z,93.74
2023-04-08T02:56:25.513Z,93.63
2023-04-08T02:58:52.382Z,93.64
2023-04-08T03:01:19.191Z,93.85
2023-04-08T03:03:46.063Z,93.79
2023-04-08T03:06:13.108Z,94.06
2023-04-08T03:08:41.216Z,93.86
2023-04-08T03:11:07.919Z,94.03
2023-04-08T03:13:34.654Z,94.03
2023-04-08T03:16:01.329Z,94.18
2023-04-08T03:18:27.991Z,94.31
2023-04-08T03:20:54.709Z,93.81
2023-04-08T03:23:21.398Z,94.13
2023-04-08T03:25:49.464Z,94.09
2023-04-08T03:28:16.215Z,94.26
2023-04-08T03:30:43.135Z,94.14
2023-04-08T03:33:09.851Z,93.99
2023-04-08T03:35:36.720Z,94.32
2023-04-08T03:38:03.489Z,94.05
2023-04-08T03:40:30.136Z,93.95
2023-04-08T03:42:58.234Z,93.62
2023-04-08T03:45:24.917Z,94.35
2023-04-08T03:47:51.605Z,93.99
2023-04-08T03:50:18.406Z,94.06
2023-04-08T03:52:45.103Z,94.29
2023-04-08T03:55:11.877Z,94.06
2023-04-08T03:57:38.597Z,94.12
2023-04-08T04:00:08.348Z,94.32
2023-04-08T04:02:35.114Z,94.52
2023-04-08T04:05:02.137Z,94.72
2023-04-08T04:07:29.010Z,94.44
2023-04-08T04:09:55.750Z,94.57
2023-04-08T04:12:22.605Z,94.82
2023-04-08T04:14:49.286Z,94.53
2023-04-08T04:17:17.356Z,94.71
2023-04-08T04:19:44.038Z,94.88
2023-04-08T04:22:10.728Z,94.84
2023-04-08T04:24:37.399Z,94.89
2023-04-08T04:27:04.184Z,94.83
2023-04-08T04:29:31.373Z,94.74
2023-04-08T04:31:58.086Z,94.80
2023-04-08T04:34:26.208Z,94.70
2023-04-08T04:36:52.874Z,94.89
2023-04-08T04:39:19.563Z,94.99
2023-04-08T04:41:46.304Z,94.83
2023-04-08T04:44:13.050Z,94.58
2023-04-08T04:46:39.810Z,94.85
2023-04-08T04:49:06.575Z,94.62
2023-04-08T04:51:34.649Z,94.90
2023-04-08T04:54:01.348Z,94.57
2023-04-08T04:56:28.054Z,94.62
2023-04-08T04:58:54.755Z,94.56
2023-04-08T05:01:21.428Z,94.27
2023-04-08T05:03:48.235Z,94.34
2023-04-08T05:06:14.950Z,94.82
2023-04-08T05:08:43.002Z,95.07
2023-04-08T05:11:10.053Z,94.90
2023-04-08T05:13:36.781Z,94.37
2023-04-08T05:16:03.597Z,94.34
2023-04-08T05:18:30.342Z,94.72
2023-04-08T05:20:57.028Z,94.87
2023-04-08T05:23:23.792Z,95.22
2023-04-08T05:25:51.892Z,94.16
2023-04-08T05:28:18.591Z,94.59
2023-04-08T05:30:49.154Z,94.80
2023-04-08T05:33:15.941Z,94.54
2023-04-08T05:35:42.685Z,94.19
2023-04-08T05:38:09.473Z,93.28
2023-04-08T05:40:36.252Z,93.66
2023-04-08T05:43:04.343Z,94.07
2023-04-08T05:45:31.063Z,93.58
2023-04-08T05:47:57.860Z,93.36
2023-04-08T05:50:24.621Z,93.64
2023-04-08T05:52:51.298Z,93.32
2023-04-08T05:55:18.015Z,93.56
2023-04-08T05:57:44.711Z,93.03
2023-04-08T06:00:13.259Z,93.66
2023-04-08T06:02:40.048Z,93.09
2023-04-08T06:05:07.376Z,93.09
2023-04-08T06:07:34.157Z,93.18
2023-04-08T06:10:00.873Z,92.93
2023-04-08T06:12:27.557Z,93.20
2023-04-08T06:14:54.566Z,92.87
2023-04-08T06:17:22.771Z,92.59
2023-04-08T06:19:49.469Z,93.05
2023-04-08T06:22:16.180Z,92.53
2023-04-08T06:24:42.930Z,93.16
2023-04-08T06:27:09.675Z,93.29
2023-04-08T06:29:36.394Z,92.40
2023-04-08T06:32:03.175Z,93.11
2023-04-08T06:34:31.386Z,92.80
2023-04-08T06:36:58.126Z,92.49
2023-04-08T06:39:25.316Z,92.92
2023-04-08T06:41:52.012Z,93.07
2023-04-08T06:44:18.850Z,92.28
2023-04-08T06:46:45.574Z,93.10
2023-04-08T06:49:12.778Z,92.36
2023-04-08T06:51:40.830Z,91.83
2023-04-08T06:54:07.589Z,91.80
2023-04-08T06:56:34.354Z,92.11
2023-04-08T06:59:01.053Z,91.57
2023-04-08T07:01:27.917Z,91.63
2023-04-08T07:03:54.968Z,91.91
2023-04-08T07:06:21.754Z,92.05
2023-04-08T07:08:50.008Z,91.18
2023-04-08T07:11:16.781Z,90.84
2023-04-08T07:13:43.558Z,92.26
2023-04-08T07:16:10.289Z,92.24
2023-04-08T07:18:36.986Z,91.26
2023-04-08T07:21:03.900Z,91.01
2023-04-08T07:23:30.637Z,91.34
2023-04-08T07:26:02.215Z,91.62
2023-04-08T07:28:28.912Z,91.94
2023-04-08T07:30:55.699Z,92.41
2023-04-08T07:33:22.388Z,91.69
2023-04-08T07:35:49.123Z,91.39
2023-04-08T07:38:15.831Z,90.87
2023-04-08T07:40:42.583Z,90.86
2023-04-08T07:43:10.669Z,90.87
2023-04-08T07:45:37.524Z,90.63
2023-04-08T07:48:04.748Z,90.99
2023-04-08T07:50:31.478Z,91.09
2023-04-08T07:52:58.203Z,90.33
2023-04-08T07:55:25.082Z,89.14
2023-04-08T07:57:51.875Z,90.69
2023-04-08T08:00:20.649Z,89.15
2023-04-08T08:02:47.471Z,89.29
2023-04-08T08:05:14.207Z,89.01
2023-04-08T08:07:40.995Z,89.84
2023-04-08T08:10:08.948Z,89.76
2023-04-08T08:12:35.687Z,89.20
2023-04-08T08:15:02.548Z,88.02
2023-04-08T08:17:30.835Z,88.85
2023-04-08T08:19:57.577Z,89.12
2023-04-08T08:22:24.294Z,88.95
2023-04-08T08:24:55.707Z,89.00
2023-04-08T08:27:22.647Z,87.61
2023-04-08T08:29:49.346Z,89.86
2023-04-08T08:32:16.007Z,87.35
2023-04-08T08:34:44.121Z,89.75
2023-04-08T08:37:10.843Z,89.94
2023-04-08T08:39:37.510Z,87.84
2023-04-08T08:42:04.327Z,88.27
2023-04-08T08:44:31.093Z,87.38
2023-04-08T08:46:57.886Z,86.91
2023-04-08T08:49:24.679Z,87.27
2023-04-08T08:51:52.900Z,87.92
2023-04-08T08:54:19.619Z,88.89
2023-04-08T08:56:46.318Z,88.44
2023-04-08T08:59:13.073Z,87.77
2023-04-08T09:01:39.990Z,87.88
2023-04-08T09:04:07.869Z,87.51
2023-04-08T09:06:34.756Z,87.69
2023-04-08T09:09:02.871Z,88.30
2023-04-08T09:11:29.575Z,88.65
2023-04-08T09:13:56.290Z,86.68
2023-04-08T09:16:23.120Z,87.86
2023-04-08T09:18:49.872Z,86.68
2023-04-08T09:21:17.199Z,86.91
2023-04-08T09:23:44.624Z,87.05
2023-04-08T09:26:13.823Z,88.18
2023-04-08T09:28:41.058Z,87.99
2023-04-08T09:31:20.884Z,88.27
2023-04-08T09:33:47.949Z,87.34
2023-04-08T09:36:15.221Z,87.55
2023-04-08T09:38:41.975Z,86.55
2023-04-08T09:41:08.735Z,87.84
2023-04-08T09:43:40.969Z,87.80
2023-04-08T09:46:07.873Z,87.18
2023-04-08T09:48:36.819Z,88.19
2023-04-08T09:51:03.753Z,88.38
2023-04-08T09:53:32.120Z,88.10
2023-04-08T09:55:58.949Z,87.32
2023-04-08T09:58:28.059Z,87.47
2023-04-08T10:00:56.181Z,87.51
2023-04-08T10:03:27.029Z,87.43
2023-04-08T10:06:19.065Z,87.08
2023-04-08T10:08:45.821Z,87.56
2023-04-08T10:11:12.549Z,87.39
2023-04-08T10:13:39.259Z,87.98
2023-04-08T10:16:23.185Z,89.39
2023-04-08T10:18:50.116Z,88.42
2023-04-08T10:21:33.212Z,88.29
2023-04-08T10:24:00.118Z,89.11
2023-04-08T10:26:34.239Z,88.87
2023-04-08T10:29:43.686Z,88.23
2023-04-08T10:32:28.232Z,88.64
2023-04-08T10:34:54.975Z,89.14
2023-04-08T10:37:21.660Z,88.81
2023-04-08T10:39:51.212Z,87.74
2023-04-08T10:42:17.942Z,88.15
2023-04-08T10:44:44.864Z,88.15
2023-04-08T10:47:11.785Z,88.57
2023-04-08T10:49:39.856Z,89.09
2023-04-08T10:52:09.636Z,88.93
2023-04-08T10:54:37.948Z,89.94
2023-04-08T10:57:04.677Z,89.37
2023-04-08T10:59:32.271Z,89.37
2023-04-08T11:01:59.217Z,89.15
2023-04-08T11:04:26.024Z,88.39
2023-04-08T11:06:54.329Z,88.79
2023-04-08T11:09:21.096Z,88.81
2023-04-08T11:11:47.829Z,88.76
2023-04-08T11:14:14.557Z,88.96
2023-04-08T11:16:41.262Z,88.59
2023-04-08T11:19:08.991Z,88.30
2023-04-08T11:21:36.076Z,88.98
2023-04-08T11:24:09.678Z,88.42
2023-04-08T11:26:36.707Z,88.60
2023-04-08T11:29:03.500Z,87.54
2023-04-08T11:31:30.281Z,88.37
2023-04-08T11:33:57.054Z,87.60
2023-04-08T11:36:23.805Z,86.44
2023-04-08T11:38:50.586Z,87.08
2023-04-08T11:41:18.747Z,86.51
2023-04-08T11:43:54.915Z,86.59
2023-04-08T11:46:21.748Z,86.96
2023-04-08T11:48:58.624Z,86.84
2023-04-08T11:51:25.348Z,86.64
2023-04-08T11:53:54.680Z,86.15
2023-04-08T11:56:24.434Z,86.62
2023-04-08T11:58:51.385Z,86.61
2023-04-08T12:01:18.254Z,86.73
2023-04-08T12:03:55.793Z,86.77
2023-04-08T12:06:23.101Z,87.95
2023-04-08T12:08:49.866Z,86.26
2023-04-08T12:11:20.036Z,87.07
2023-04-08T12:13:48.680Z,85.37
2023-04-08T12:16:15.528Z,85.44
2023-04-08T12:18:42.276Z,83.53
2023-04-08T12:21:08.985Z,84.11
2023-04-08T12:23:35.688Z,85.21
2023-04-08T12:26:02.529Z,84.94
2023-04-08T12:28:29.230Z,83.88
2023-04-08T12:30:57.344Z,83.58
2023-04-08T12:33:24.054Z,83.97
2023-04-08T12:35:50.996Z,81.44
2023-04-08T12:38:17.820Z,83.01
2023-04-08T12:40:44.632Z,82.71
2023-04-08T12:43:11.520Z,81.85
2023-04-08T12:45:38.278Z,81.61
2023-04-08T12:48:06.579Z,80.17
2023-04-08T12:50:33.365Z,80.77
2023-04-08T12:53:00.123Z,81.84
2023-04-08T12:55:27.001Z,81.29
2023-04-08T12:57:53.775Z,81.30
2023-04-08T13:00:20.466Z,80.61
2023-04-08T13:02:47.300Z,82.78
2023-04-08T13:05:15.586Z,80.58
2023-04-08T13:07:43.743Z,81.00
2023-04-08T13:10:11.019Z,80.66
2023-04-08T13:12:37.778Z,80.99
2023-04-08T13:15:05.506Z,81.71
2023-04-08T13:17:32.650Z,82.49
2023-04-08T13:19:59.405Z,82.07
2023-04-08T13:22:27.544Z,81.87
2023-04-08T13:24:54.281Z,79.73
2023-04-08T13:27:21.022Z,79.74
2023-04-08T13:29:47.770Z,79.96
2023-04-08T13:32:14.605Z,80.48
2023-04-08T13:34:41.379Z,79.71
2023-04-08T13:37:08.115Z,80.18
2023-04-08T13:39:36.224Z,79.38
2023-04-08T13:42:02.948Z,80.29
2023-04-08T13:44:29.718Z,81.26
2023-04-08T13:46:56.441Z,79.08
2023-04-08T13:49:23.131Z,80.20
2023-04-08T13:51:49.859Z,80.88
2023-04-08T13:54:16.704Z,81.24
2023-04-08T13:56:45.799Z,81.97
2023-04-08T13:59:12.442Z,81.73
2023-04-08T14:01:40.543Z,83.04
2023-04-08T14:04:07.365Z,83.09
2023-04-08T14:06:34.087Z,82.31
2023-04-08T14:09:00.952Z,82.22
2023-04-08T14:11:27.704Z,82.94
2023-04-08T14:13:55.758Z,84.21
2023-04-08T14:16:22.634Z,83.94
2023-04-08T14:18:50.108Z,84.87
2023-04-08T14:21:17.146Z,83.92
2023-04-08T14:23:43.850Z,82.74
2023-04-08T14:26:10.552Z,82.80
2023-04-08T14:28:37.252Z,82.23
2023-04-08T14:31:05.566Z,80.73
2023-04-08T14:33:32.348Z,81.62
2023-04-08T14:35:59.063Z,80.79
2023-04-08T14:38:25.840Z,82.48
2023-04-08T14:40:52.653Z,80.13
2023-04-08T14:43:19.414Z,81.26
2023-04-08T14:45:46.171Z,81.66
2023-04-08T14:48:14.255Z,81.11
2023-04-08T14:50:41.171Z,82.75
2023-04-08T14:53:07.977Z,82.99
2023-04-08T14:55:34.736Z,81.62
2023-04-08T14:58:01.495Z,81.29
2023-04-08T15:00:28.369Z,82.75
2023-04-08T15:02:55.153Z,84.13
2023-04-08T15:05:23.280Z,82.45
2023-04-08T15:07:50.064Z,82.60
2023-04-08T15:10:16.874Z,82.29
2023-04-08T15:12:43.586Z,81.81
2023-04-08T15:15:10.622Z,82.88
2023-04-08T15:17:37.364Z,83.62
2023-04-08T15:20:04.918Z,83.76
2023-04-08T15:22:33.284Z,84.44
2023-04-08T15:25:00.021Z,83.17
2023-04-08T15:27:26.753Z,83.02
2023-04-08T15:29:53.515Z,81.42
2023-04-08T15:32:20.255Z,83.55
2023-04-08T15:34:46.988Z,81.99
2023-04-08T15:37:13.788Z,81.89
2023-04-08T15:39:41.901Z,81.78
2023-04-08T15:42:08.685Z,82.61
2023-04-08T15:44:35.482Z,81.97
2023-04-08T15:47:02.200Z,83.37
2023-04-08T15:49:29.028Z,83.18
2023-04-08T15:51:56.108Z,83.60
2023-04-08T15:54:22.833Z,83.33
2023-04-08T15:56:50.927Z,82.66
2023-04-08T15:59:17.695Z,83.20
2023-04-08T16:01:44.550Z,82.91
2023-04-08T16:04:11.491Z,82.40
2023-04-08T16:06:38.320Z,83.63
2023-04-08T16:09:05.020Z,82.21
2023-04-08T16:11:33.357Z,83.11
2023-04-08T16:14:01.525Z,83.36
2023-04-08T16:16:28.287Z,81.85
2023-04-08T16:18:55.080Z,81.93
2023-04-08T16:21:21.926Z,81.86
2023-04-08T16:23:49.061Z,82.17
2023-04-08T16:26:16.019Z,81.69
2023-04-08T16:28:42.903Z,82.43
2023-04-08T16:31:11.052Z,80.78
2023-04-08T16:33:37.752Z,81.27
2023-04-08T16:36:04.739Z,80.80
2023-04-08T16:38:31.535Z,81.66
2023-04-08T16:40:58.275Z,82.84
2023-04-08T16:43:25.071Z,81.98
2023-04-08T16:45:51.895Z,82.73
2023-04-08T16:48:20.045Z,81.82
2023-04-08T16:50:46.812Z,83.16
2023-04-08T16:53:13.555Z,83.19
2023-04-08T16:55:40.305Z,84.25
2023-04-08T16:58:07.096Z,83.04
2023-04-08T17:00:33.953Z,84.39
2023-04-08T17:03:00.918Z,84.27
2023-04-08T17:05:29.323Z,84.24
2023-04-08T17:07:56.075Z,83.79
2023-04-08T17:10:23.077Z,85.78
2023-04-08T17:12:49.838Z,86.17
2023-04-08T17:15:16.567Z,87.18
2023-04-08T17:17:43.321Z,87.80
2023-04-08T17:20:11.129Z,87.54
2023-04-08T17:22:39.261Z,87.58
2023-04-08T17:25:06.875Z,87.87
2023-04-08T17:27:33.672Z,87.87
2023-04-08T17:30:00.468Z,88.04
2023-04-08T17:32:27.267Z,88.42
2023-04-08T17:34:54.642Z,88.80
2023-04-08T17:37:21.379Z,87.90
2023-04-08T17:39:49.622Z,88.98
2023-04-08T17:42:16.427Z,86.74
2023-04-08T17:44:43.186Z,85.51
2023-04-08T17:47:10.048Z,84.96
2023-04-08T17:49:36.766Z,86.08
2023-04-08T17:52:03.589Z,86.63
2023-04-08T17:54:30.324Z,86.65
2023-04-08T17:56:58.499Z,87.48
2023-04-08T17:59:25.263Z,87.49
2023-04-08T18:01:52.124Z,87.34
2023-04-08T18:04:19.029Z,87.40
2023-04-08T18:06:45.808Z,88.92
2023-04-08T18:09:12.571Z,89.18
2023-04-08T18:11:39.357Z,88.88
2023-04-08T18:14:07.482Z,89.63
2023-04-08T18:16:34.230Z,89.66
2023-04-08T18:19:01.045Z,90.21
2023-04-08T18:21:27.799Z,89.87
2023-04-08T18:23:54.746Z,90.47
2023-04-08T18:26:21.636Z,89.70
2023-04-08T18:28:48.356Z,89.95
2023-04-08T18:31:16.528Z,89.91
2023-04-08T18:33:43.353Z,89.12
2023-04-08T18:36:10.946Z,89.80
2023-04-08T18:38:37.737Z,89.04
2023-04-08T18:41:04.601Z,89.28
2023-04-08T18:43:31.411Z,89.37
2023-04-08T18:45:58.231Z,89.54
2023-04-08T18:48:26.439Z,88.99
2023-04-08T18:50:53.185Z,90.15
2023-04-08T18:53:19.932Z,90.71
2023-04-08T18:55:46.742Z,90.72
2023-04-08T18:58:13.503Z,90.40
2023-04-08T19:00:40.316Z,91.67
2023-04-08T19:03:09.469Z,91.01
2023-04-08T19:05:38.433Z,91.12
2023-04-08T19:08:05.231Z,91.50
2023-04-08T19:10:32.006Z,92.20
2023-04-08T19:12:58.886Z,93.58
2023-04-08T19:15:25.722Z,92.96
2023-04-08T19:17:52.627Z,93.09
2023-04-08T19:20:19.435Z,93.59
2023-04-08T19:22:47.584Z,93.02
2023-04-08T19:25:14.642Z,92.78
2023-04-08T19:27:41.386Z,92.59
2023-04-08T19:30:08.702Z,92.95
2023-04-08T19:32:35.598Z,92.47
2023-04-08T19:35:02.412Z,92.53
2023-04-08T19:37:29.158Z,93.40
2023-04-08T19:39:57.435Z,92.73
2023-04-08T19:42:24.170Z,92.92
2023-04-08T19:44:50.916Z,93.65
2023-04-08T19:47:17.799Z,93.21
2023-04-08T19:49:44.555Z,93.89
2023-04-08T19:52:11.305Z,93.85
2023-04-08T19:54:38.125Z,94.06
2023-04-08T19:57:07.463Z,93.58
2023-04-08T19:59:34.229Z,94.17
2023-04-08T20:02:01.159Z,94.44
2023-04-08T20:04:27.967Z,94.96
2023-04-08T20:06:54.783Z,94.34
2023-04-08T20:09:21.640Z,94.30
2023-04-08T20:11:48.394Z,94.53
2023-04-08T20:14:16.482Z,94.75
2023-04-08T20:16:43.248Z,94.88
2023-04-08T20:19:10.015Z,93.42
2023-04-08T20:21:36.790Z,94.09
2023-04-08T20:24:03.812Z,94.16
2023-04-08T20:26:30.630Z,94.35
2023-04-08T20:28:58.985Z,94.94
2023-04-08T20:31:27.554Z,94.30
2023-04-08T20:33:54.317Z,94.94
2023-04-08T20:36:21.132Z,94.60
2023-04-08T20:38:47.872Z,94.59
2023-04-08T20:41:18.286Z,95.03
2023-04-08T20:43:45.021Z,95.05
2023-04-08T20:46:11.789Z,94.57
2023-04-08T20:48:40.101Z,94.67
2023-04-08T20:51:06.859Z,94.63
2023-04-08T20:53:33.712Z,94.99
2023-04-08T20:56:00.458Z,95.66
2023-04-08T20:58:27.189Z,95.77
2023-04-08T21:00:54.017Z,95.93
2023-04-08T21:03:20.878Z,95.95
2023-04-08T21:05:49.046Z,95.73
2023-04-08T21:08:15.829Z,95.44
2023-04-08T21:10:42.559Z,95.88
2023-04-08T21:13:09.303Z,95.73
2023-04-08T21:15:36.108Z,95.83
2023-04-08T21:18:02.976Z,95.96
2023-04-08T21:20:29.728Z,95.82
2023-04-08T21:22:57.936Z,95.92
2023-04-08T21:25:24.671Z,95.67
2023-04-08T21:27:51.459Z,95.36
2023-04-08T21:30:18.232Z,96.18
2023-04-08T21:32:45.480Z,95.86
2023-04-08T21:35:12.282Z,95.67
2023-04-08T21:37:39.057Z,96.05
2023-04-08T21:40:08.626Z,95.81
2023-04-08T21:42:35.335Z,96.43
2023-04-08T21:45:02.118Z,96.46
2023-04-08T21:47:28.852Z,97.03
2023-04-08T21:49:55.594Z,96.78
2023-04-08T21:52:22.311Z,96.76
2023-04-08T21:54:49.261Z,97.26
2023-04-08T21:57:17.427Z,96.52
2023-04-08T21:59:44.293Z,96.67
2023-04-08T22:02:11.769Z,96.62
2023-04-08T22:04:38.686Z,96.37
2023-04-08T22:07:05.411Z,95.80
2023-04-08T22:09:32.158Z,96.19
2023-04-08T22:11:58.842Z,95.90
2023-04-08T22:14:26.948Z,95.97
2023-04-08T22:16:53.681Z,95.70
2023-04-08T22:19:20.397Z,95.84
2023-04-08T22:21:47.149Z,95.56
2023-04-08T22:24:13.861Z,95.64
2023-04-08T22:26:40.538Z,95.52
2023-04-08T22:29:07.287Z,95.15
2023-04-08T22:31:35.375Z,96.02
2023-04-08T22:34:02.107Z,95.70
2023-04-08T22:36:28.846Z,95.71
2023-04-08T22:38:55.489Z,96.14
2023-04-08T22:41:22.992Z,95.91
2023-04-08T22:43:49.993Z,95.80
2023-04-08T22:46:16.720Z,96.08
2023-04-08T22:48:44.818Z,96.01
2023-04-08T22:51:11.572Z,95.85
2023-04-08T22:53:38.302Z,96.04
2023-04-08T22:56:05.350Z,96.09
2023-04-08T22:58:32.203Z,95.97
2023-04-08T23:00:58.905Z,95.70
2023-04-08T23:03:25.619Z,96.66
2023-04-08T23:05:53.888Z,96.89
2023-04-08T23:08:20.556Z,96.92
2023-04-08T23:10:47.260Z,96.50
2023-04-08T23:13:14.081Z,97.06
2023-04-08T23:15:40.877Z,97.18
2023-04-08T23:18:07.645Z,97.23
2023-04-08T23:20:34.428Z,97.16
2023-04-08T23:23:02.490Z,97.17
2023-04-08T23:25:29.223Z,97.67
2023-04-08T23:27:55.930Z,97.40
2023-04-08T23:30:22.765Z,97.72
2023-04-08T23:32:49.496Z,97.96
2023-04-08T23:35:16.308Z,97.68
2023-04-08T23:37:42.973Z,97.51
2023-04-08T23:40:11.664Z,97.44
2023-04-08T23:42:38.456Z,97.90
2023-04-08T23:45:05.904Z,97.78
2023-04-08T23:47:32.673Z,97.41
2023-04-08T23:49:59.552Z,97.28
2023-04-08T23:52:26.212Z,96.96
2023-04-08T23:54:52.928Z,97.66
2023-04-08T23:57:21.006Z,98.28
2023-04-08T23:59:47.715Z,98.63
